createdAt,value
2018-08-03T00:01:51.106Z,54.10
2018-08-03T00:04:20.341Z,54.30
2018-08-03T00:06:49.960Z,54.40
2018-08-03T00:09:19.196Z,53.80
2018-08-03T00:11:48.430Z,52.90
2018-08-03T00:14:17.677Z,53.30
2018-08-03T00:16:47.033Z,53.40
2018-08-03T00:19:16.581Z,53.60
2018-08-03T00:21:45.844Z,54.90
2018-08-03T00:24:15.153Z,54.80
2018-08-03T00:26:44.373Z,55.20
2018-08-03T00:29:13.700Z,55.00
2018-08-03T00:31:42.920Z,55.60
2018-08-03T00:34:12.136Z,54.90
2018-08-03T00:36:41.392Z,55.40
2018-08-03T00:39:11.372Z,54.30
2018-08-03T00:41:40.616Z,54.00
2018-08-03T00:44:09.897Z,54.00
2018-08-03T00:46:39.100Z,55.00
2018-08-03T00:49:08.317Z,55.40
2018-08-03T00:51:37.687Z,54.30
2018-08-03T00:54:07.123Z,54.40
2018-08-03T00:56:36.707Z,55.50
2018-08-03T00:59:05.981Z,54.50
2018-08-03T01:01:35.210Z,54.60
2018-08-03T01:04:04.475Z,54.70
2018-08-03T01:06:33.916Z,55.10
2018-08-03T01:09:03.596Z,55.90
2018-08-03T01:11:32.811Z,56.50
2018-08-03T01:14:02.525Z,55.30
2018-08-03T01:16:36.239Z,55.30
2018-08-03T01:19:05.500Z,56.90
2018-08-03T01:21:34.898Z,56.30
2018-08-03T01:24:04.409Z,58.70
2018-08-03T01:26:33.864Z,57.90
2018-08-03T01:29:03.621Z,58.20
2018-08-03T01:31:32.861Z,57.70
2018-08-03T01:34:02.544Z,57.90
2018-08-03T01:36:31.763Z,59.20
2018-08-03T01:39:01.030Z,57.70
2018-08-03T01:41:30.300Z,58.00
2018-08-03T01:43:59.545Z,57.90
2018-08-03T01:46:28.776Z,59.30
2018-08-03T01:48:58.013Z,59.70
2018-08-03T01:51:27.231Z,59.80
2018-08-03T01:53:56.476Z,60.30
2018-08-03T01:56:25.971Z,60.20
2018-08-03T01:58:55.533Z,59.40
2018-08-03T02:01:24.813Z,59.30
2018-08-03T02:03:55.079Z,59.80
2018-08-03T02:06:26.931Z,60.10
2018-08-03T02:08:56.177Z,60.60
2018-08-03T02:13:54.185Z,61.40
2018-08-03T02:21:21.520Z,61.60
2018-08-03T02:23:50.788Z,61.50
2018-08-03T02:26:20.021Z,60.70
2018-08-03T02:28:49.253Z,59.90
2018-08-03T02:31:18.512Z,61.60
2018-08-03T02:33:47.760Z,59.80
2018-08-03T02:36:16.989Z,62.20
2018-08-03T02:38:46.844Z,62.90
2018-08-03T02:41:16.051Z,62.40
2018-08-03T02:43:45.477Z,65.00
2018-08-03T02:46:14.800Z,62.70
2018-08-03T02:48:44.041Z,65.10
2018-08-03T02:51:13.376Z,63.90
2018-08-03T02:56:11.881Z,66.80
2018-08-03T02:58:41.128Z,67.50
2018-08-03T03:01:11.144Z,65.70
2018-08-03T03:03:40.420Z,63.70
2018-08-03T03:06:10.160Z,64.40
2018-08-03T03:08:39.429Z,63.90
2018-08-03T03:11:08.684Z,64.00
2018-08-03T03:13:37.917Z,63.70
2018-08-03T03:16:07.229Z,66.30
2018-08-03T03:18:36.456Z,69.30
2018-08-03T03:21:05.701Z,68.10
2018-08-03T03:23:35.180Z,68.70
2018-08-03T03:26:04.536Z,66.80
2018-08-03T03:28:33.815Z,65.50
2018-08-03T03:31:03.065Z,65.50
2018-08-03T03:33:32.291Z,66.30
2018-08-03T03:36:01.521Z,67.50
2018-08-03T03:38:30.789Z,67.50
2018-08-03T03:41:00.025Z,67.50
2018-08-03T03:43:29.274Z,65.60
2018-08-03T03:45:59.170Z,67.10
2018-08-03T03:48:28.432Z,70.10
2018-08-03T03:53:26.548Z,68.50
2018-08-03T03:55:55.788Z,70.80
2018-08-03T03:58:25.065Z,68.40
2018-08-03T04:00:54.344Z,68.40
2018-08-03T04:03:24.036Z,71.20
2018-08-03T04:05:53.740Z,72.30
2018-08-03T04:08:23.489Z,71.70
2018-08-03T04:10:52.872Z,73.40
2018-08-03T04:13:22.508Z,74.10
2018-08-03T04:15:51.801Z,74.90
2018-08-03T04:18:21.993Z,74.40
2018-08-03T04:20:52.343Z,73.50
2018-08-03T04:23:21.600Z,73.60
2018-08-03T04:25:50.819Z,74.00
2018-08-03T04:28:20.340Z,73.90
2018-08-03T04:30:49.569Z,73.40
2018-08-03T04:33:18.797Z,75.70
2018-08-03T04:35:48.356Z,74.10
2018-08-03T04:38:17.637Z,74.50
2018-08-03T04:40:46.957Z,77.60
2018-08-03T04:43:16.236Z,75.80
2018-08-03T04:45:45.509Z,75.00
2018-08-03T04:48:14.808Z,75.00
2018-08-03T04:53:13.543Z,72.70
2018-08-03T04:55:42.787Z,72.80
2018-08-03T04:58:12.110Z,72.90
2018-08-03T05:00:41.533Z,71.70
2018-08-03T05:03:10.844Z,73.00
2018-08-03T05:05:40.613Z,72.20
2018-08-03T05:08:10.064Z,72.70
2018-08-03T05:10:39.296Z,75.10
2018-08-03T05:13:08.808Z,73.80
2018-08-03T05:15:38.031Z,73.70
2018-08-03T05:20:36.212Z,75.30
2018-08-03T05:25:34.675Z,75.90
2018-08-03T05:28:03.951Z,76.50
2018-08-03T05:30:33.237Z,77.30
2018-08-03T05:35:31.516Z,76.40
2018-08-03T05:38:00.873Z,74.20
2018-08-03T05:40:30.092Z,74.00
2018-08-03T05:42:59.353Z,73.80
2018-08-03T05:45:28.791Z,75.90
2018-08-03T05:47:57.984Z,76.10
2018-08-03T05:50:27.289Z,76.20
2018-08-03T05:52:56.577Z,75.80
2018-08-03T05:55:25.972Z,75.90
2018-08-03T05:57:55.483Z,75.20
2018-08-03T06:00:24.860Z,76.30
2018-08-03T06:02:54.148Z,74.20
2018-08-03T06:05:23.468Z,74.20
2018-08-03T06:07:53.085Z,73.90
2018-08-03T06:10:22.357Z,74.30
2018-08-03T06:12:51.644Z,76.60
2018-08-03T06:17:49.692Z,75.40
2018-08-03T06:20:19.174Z,74.60
2018-08-03T06:22:48.397Z,76.30
2018-08-03T06:25:17.649Z,74.50
2018-08-03T06:27:46.896Z,74.10
2018-08-03T06:30:16.125Z,73.40
2018-08-03T06:35:14.173Z,73.30
2018-08-03T06:37:43.408Z,73.30
2018-08-03T06:42:41.857Z,75.10
2018-08-03T06:45:11.108Z,73.70
2018-08-03T06:47:40.377Z,72.50
2018-08-03T06:50:09.952Z,72.40
2018-08-03T06:52:39.196Z,72.80
2018-08-03T06:55:08.448Z,72.80
2018-08-03T06:57:37.757Z,71.80
2018-08-03T07:02:36.780Z,70.10
2018-08-03T07:05:06.289Z,69.80
2018-08-03T07:07:35.520Z,68.90
2018-08-03T07:10:05.652Z,69.00
2018-08-03T07:12:35.189Z,69.20
2018-08-03T07:15:04.581Z,69.20
2018-08-03T07:17:33.802Z,69.10
2018-08-03T07:20:03.161Z,69.00
2018-08-03T07:22:32.377Z,68.60
2018-08-03T07:25:01.648Z,68.30
2018-08-03T07:27:31.336Z,68.00
2018-08-03T07:30:00.618Z,67.30
2018-08-03T07:32:29.915Z,67.40
2018-08-03T07:34:59.517Z,67.40
2018-08-03T07:37:30.034Z,67.60
2018-08-03T07:39:59.284Z,67.10
2018-08-03T07:42:28.673Z,67.60
2018-08-03T07:44:58.035Z,67.50
2018-08-03T07:47:27.209Z,67.10
2018-08-03T07:52:25.814Z,66.50
2018-08-03T07:54:55.440Z,66.50
2018-08-03T07:57:24.745Z,66.20
2018-08-03T07:59:53.980Z,65.80
2018-08-03T08:02:23.320Z,65.50
2018-08-03T08:04:52.620Z,64.90
2018-08-03T08:09:50.637Z,64.20
2018-08-03T08:12:20.230Z,63.70
2018-08-03T08:14:49.490Z,63.60
2018-08-03T08:17:18.725Z,63.50
2018-08-03T08:19:47.980Z,63.10
2018-08-03T08:22:17.253Z,63.10
2018-08-03T08:24:46.445Z,63.20
2018-08-03T08:27:15.781Z,62.80
2018-08-03T08:29:45.101Z,62.40
2018-08-03T08:32:14.405Z,61.80
2018-08-03T08:34:43.852Z,61.10
2018-08-03T08:37:13.084Z,60.40
2018-08-03T08:39:42.308Z,59.80
2018-08-03T08:42:11.617Z,59.70
2018-08-03T08:44:40.829Z,59.10
2018-08-03T08:47:10.108Z,58.70
2018-08-03T08:52:08.164Z,59.00
2018-08-03T08:54:37.395Z,58.90
2018-08-03T08:57:07.433Z,58.00
2018-08-03T08:59:36.701Z,58.30
2018-08-03T09:02:06.648Z,57.70
2018-08-03T09:04:35.895Z,57.70
2018-08-03T09:07:05.152Z,57.80
2018-08-03T09:09:34.389Z,57.80
2018-08-03T09:12:03.712Z,57.50
2018-08-03T09:14:33.389Z,57.50
2018-08-03T09:17:02.616Z,56.70
2018-08-03T09:19:32.053Z,56.00
2018-08-03T09:22:01.297Z,55.70
2018-08-03T09:24:31.811Z,55.10
2018-08-03T09:27:01.088Z,55.70
2018-08-03T09:29:30.324Z,55.70
2018-08-03T09:31:59.712Z,55.60
2018-08-03T09:34:29.010Z,54.60
2018-08-03T09:36:58.265Z,54.30
2018-08-03T09:39:27.598Z,54.10
2018-08-03T09:41:57.432Z,54.00
2018-08-03T09:44:26.674Z,54.30
2018-08-03T09:46:55.884Z,54.20
2018-08-03T09:49:25.185Z,52.60
2018-08-03T09:51:54.760Z,53.20
2018-08-03T09:54:24.012Z,53.30
2018-08-03T09:56:53.309Z,52.80
2018-08-03T09:59:22.536Z,52.60
2018-08-03T10:01:51.832Z,52.10
2018-08-03T10:04:21.445Z,51.60
2018-08-03T10:06:50.668Z,52.10
2018-08-03T10:09:19.973Z,52.10
2018-08-03T10:11:49.209Z,52.40
2018-08-03T10:14:18.441Z,51.90
2018-08-03T10:16:48.084Z,51.30
2018-08-03T10:19:17.642Z,51.20
2018-08-03T10:21:46.892Z,50.80
2018-08-03T10:24:16.109Z,50.80
2018-08-03T10:26:45.456Z,50.30
2018-08-03T10:29:14.693Z,50.30
2018-08-03T10:31:43.932Z,49.80
2018-08-03T10:34:13.261Z,50.20
2018-08-03T10:36:42.774Z,50.40
2018-08-03T10:39:12.583Z,49.60
2018-08-03T10:41:41.884Z,49.40
2018-08-03T10:44:11.872Z,49.40
2018-08-03T10:46:41.168Z,48.40
2018-08-03T10:49:10.706Z,48.50
2018-08-03T10:51:39.920Z,48.00
2018-08-03T10:54:09.161Z,48.20
2018-08-03T10:56:38.425Z,48.40
2018-08-03T10:59:07.636Z,47.70
2018-08-03T11:01:36.893Z,47.40
2018-08-03T11:04:06.577Z,47.00
2018-08-03T11:06:35.872Z,46.50
2018-08-03T11:09:07.445Z,47.30
2018-08-03T11:11:37.040Z,46.50
2018-08-03T11:14:06.461Z,45.70
2018-08-03T11:16:36.073Z,42.30
2018-08-03T11:19:05.860Z,42.50
2018-08-03T11:21:35.085Z,40.10
2018-08-03T11:24:04.836Z,38.90
2018-08-03T11:26:34.021Z,37.50
2018-08-03T11:29:03.349Z,36.50
2018-08-03T11:31:33.104Z,35.20
2018-08-03T11:34:02.805Z,34.50
2018-08-03T11:36:32.027Z,32.50
2018-08-03T11:39:01.396Z,35.00
2018-08-03T11:41:30.608Z,32.90
2018-08-03T11:44:00.030Z,32.40
2018-08-03T11:46:29.317Z,32.20
2018-08-03T11:48:58.601Z,31.10
2018-08-03T11:51:27.837Z,31.60
2018-08-03T11:53:57.473Z,29.90
2018-08-03T11:56:26.676Z,30.50
2018-08-03T12:01:24.822Z,29.40
2018-08-03T12:03:54.696Z,29.80
2018-08-03T12:06:23.920Z,30.60
2018-08-03T12:08:53.157Z,28.90
2018-08-03T12:11:22.396Z,28.80
2018-08-03T12:13:51.635Z,26.90
2018-08-03T12:16:21.451Z,28.80
2018-08-03T12:18:50.813Z,27.10
2018-08-03T12:21:20.460Z,26.50
2018-08-03T12:23:50.277Z,26.20
2018-08-03T12:26:19.717Z,26.50
2018-08-03T12:28:48.944Z,26.20
2018-08-03T12:31:18.295Z,26.20
2018-08-03T12:33:47.853Z,26.40
2018-08-03T12:36:17.228Z,26.30
2018-08-03T12:38:47.103Z,27.40
2018-08-03T12:41:16.341Z,25.40
2018-08-03T12:43:45.605Z,24.90
2018-08-03T12:46:14.899Z,25.40
2018-08-03T12:48:44.113Z,26.40
2018-08-03T12:51:13.350Z,25.50
2018-08-03T12:53:42.601Z,25.90
2018-08-03T12:56:11.837Z,26.00
2018-08-03T12:58:41.068Z,25.10
2018-08-03T13:01:10.835Z,23.60
2018-08-03T13:03:41.330Z,24.70
2018-08-03T13:06:11.213Z,23.80
2018-08-03T13:08:40.424Z,22.30
2018-08-03T13:11:09.645Z,23.40
2018-08-03T13:13:39.044Z,23.10
2018-08-03T13:16:08.713Z,23.70
2018-08-03T13:18:37.992Z,23.50
2018-08-03T13:21:18.945Z,21.30
2018-08-03T13:23:55.465Z,22.40
2018-08-03T13:26:25.420Z,23.10
2018-08-03T13:28:55.196Z,22.40
2018-08-03T13:31:25.620Z,22.20
2018-08-03T13:33:54.981Z,22.10
2018-08-03T13:36:27.468Z,20.80
2018-08-03T13:38:57.493Z,22.20
2018-08-03T13:41:26.937Z,21.10
2018-08-03T13:43:56.424Z,21.90
2018-08-03T13:46:26.257Z,20.50
2018-08-03T13:48:55.906Z,21.00
2018-08-03T13:51:25.176Z,20.60
2018-08-03T13:53:54.425Z,20.30
2018-08-03T13:56:23.674Z,20.50
2018-08-03T13:58:52.913Z,20.70
2018-08-03T14:01:33.437Z,20.00
2018-08-03T14:04:02.749Z,21.00
2018-08-03T14:06:31.913Z,20.70
2018-08-03T14:09:01.161Z,18.20
2018-08-03T14:11:30.648Z,20.10
2018-08-03T14:14:00.014Z,19.70
2018-08-03T14:16:29.944Z,20.50
2018-08-03T14:18:59.165Z,19.40
2018-08-03T14:21:28.421Z,20.20
2018-08-03T14:23:58.148Z,19.90
2018-08-03T14:26:27.568Z,19.10
2018-08-03T14:28:56.784Z,19.40
2018-08-03T14:31:26.156Z,19.60
2018-08-03T14:33:55.333Z,18.60
2018-08-03T14:36:24.534Z,18.20
2018-08-03T14:38:53.828Z,19.20
2018-08-03T14:41:23.434Z,19.70
2018-08-03T14:43:52.652Z,19.00
2018-08-03T14:46:23.572Z,19.70
2018-08-03T14:48:53.105Z,17.40
2018-08-03T14:51:22.325Z,18.00
2018-08-03T14:53:51.872Z,19.30
2018-08-03T14:56:21.176Z,18.40
2018-08-03T14:58:50.418Z,19.70
2018-08-03T15:01:19.719Z,18.90
2018-08-03T15:03:49.253Z,18.50
2018-08-03T15:06:18.585Z,18.10
2018-08-03T15:08:48.170Z,18.50
2018-08-03T15:11:17.740Z,18.40
2018-08-03T15:13:46.941Z,18.60
2018-08-03T15:16:16.229Z,18.20
2018-08-03T15:18:45.604Z,19.30
2018-08-03T15:21:14.876Z,18.60
2018-08-03T15:23:44.129Z,17.70
2018-08-03T15:26:13.516Z,17.30
2018-08-03T15:28:42.729Z,18.80
2018-08-03T15:31:12.272Z,19.10
2018-08-03T15:33:41.491Z,19.20
2018-08-03T15:36:10.685Z,18.80
2018-08-03T15:38:39.928Z,18.50
2018-08-03T15:41:09.225Z,18.90
2018-08-03T15:43:38.608Z,18.40
2018-08-03T15:46:08.017Z,17.80
2018-08-03T15:48:37.288Z,18.00
2018-08-03T15:51:06.649Z,17.60
2018-08-03T15:53:36.361Z,17.80
2018-08-03T15:56:05.836Z,17.80
2018-08-03T15:58:36.034Z,17.00
2018-08-03T16:01:05.296Z,17.30
2018-08-03T16:03:35.064Z,17.10
2018-08-03T16:06:04.341Z,17.90
2018-08-03T16:08:33.579Z,18.20
2018-08-03T16:11:02.813Z,17.60
2018-08-03T16:13:32.661Z,18.00
2018-08-03T16:16:02.349Z,18.60
2018-08-03T16:18:31.580Z,17.80
2018-08-03T16:21:01.100Z,18.20
2018-08-03T16:23:30.352Z,18.40
2018-08-03T16:25:59.700Z,18.20
2018-08-03T16:28:29.025Z,18.20
2018-08-03T16:30:58.300Z,17.80
2018-08-03T16:33:27.564Z,17.10
2018-08-03T16:35:56.818Z,17.70
2018-08-03T16:38:27.016Z,17.80
2018-08-03T16:40:56.557Z,18.10
2018-08-03T16:43:26.956Z,18.00
2018-08-03T16:45:57.180Z,18.00
2018-08-03T16:48:26.532Z,18.40
2018-08-03T16:50:55.797Z,18.20
2018-08-03T16:53:25.729Z,18.10
2018-08-03T16:55:55.585Z,18.50
2018-08-03T16:58:26.604Z,18.10
2018-08-03T17:00:56.176Z,18.20
2018-08-03T17:03:25.752Z,18.30
2018-08-03T17:05:55.424Z,18.30
2018-08-03T17:08:25.520Z,18.40
2018-08-03T17:10:55.500Z,18.30
2018-08-03T17:13:24.769Z,18.60
2018-08-03T17:15:54.530Z,18.30
2018-08-03T17:18:24.138Z,18.70
2018-08-03T17:20:54.257Z,18.80
2018-08-03T17:23:23.537Z,19.20
2018-08-03T17:25:52.816Z,19.10
2018-08-03T17:28:22.250Z,19.10
2018-08-03T17:30:51.725Z,19.00
2018-08-03T17:33:21.073Z,19.20
2018-08-03T17:35:50.576Z,19.50
2018-08-03T17:38:20.516Z,19.70
2018-08-03T17:40:50.041Z,19.70
2018-08-03T17:45:48.529Z,19.80
2018-08-03T17:48:18.172Z,19.90
2018-08-03T17:50:47.500Z,20.10
2018-08-03T17:53:16.725Z,19.80
2018-08-03T17:55:46.281Z,20.10
2018-08-03T17:58:16.217Z,20.50
2018-08-03T18:00:45.596Z,21.10
2018-08-03T18:03:15.101Z,21.40
2018-08-03T18:05:44.733Z,22.10
2018-08-03T18:08:14.648Z,22.40
2018-08-03T18:10:45.193Z,22.60
2018-08-03T18:13:14.418Z,22.80
2018-08-03T18:15:44.279Z,23.20
2018-08-03T18:18:13.908Z,23.40
2018-08-03T18:20:43.144Z,23.60
2018-08-03T18:25:43.552Z,24.20
2018-08-03T18:28:13.001Z,24.60
2018-08-03T18:30:43.677Z,24.90
2018-08-03T18:33:13.141Z,25.30
2018-08-03T18:35:42.709Z,24.70
2018-08-03T18:38:12.549Z,25.20
2018-08-03T18:40:41.853Z,25.50
2018-08-03T18:43:11.122Z,25.60
2018-08-03T18:45:40.573Z,25.50
2018-08-03T18:48:10.211Z,25.60
2018-08-03T18:50:39.636Z,25.80
2018-08-03T18:53:08.928Z,26.70
2018-08-03T18:55:38.253Z,27.10
2018-08-03T18:58:07.691Z,26.90
2018-08-03T19:00:37.881Z,27.30
2018-08-03T19:03:07.241Z,27.40
2018-08-03T19:05:36.477Z,27.20
2018-08-03T19:08:06.082Z,27.20
2018-08-03T19:10:35.500Z,27.20
2018-08-03T19:13:05.061Z,27.60
2018-08-03T19:15:34.373Z,27.30
2018-08-03T19:18:03.754Z,27.40
2018-08-03T19:20:33.528Z,27.90
2018-08-03T19:23:02.770Z,27.60
2018-08-03T19:25:32.817Z,27.80
2018-08-03T19:28:02.348Z,28.30
2018-08-03T19:30:32.488Z,28.30
2018-08-03T19:33:01.995Z,28.70
2018-08-03T19:35:31.245Z,28.80
2018-08-03T19:38:00.465Z,30.00
2018-08-03T19:40:30.246Z,29.50
2018-08-03T19:42:59.733Z,29.70
2018-08-03T19:45:29.005Z,30.20
2018-08-03T19:47:58.318Z,30.00
2018-08-03T19:50:27.596Z,30.20
2018-08-03T19:52:56.816Z,30.50
2018-08-03T19:55:26.157Z,31.00
2018-08-03T19:57:55.512Z,31.00
2018-08-03T20:00:24.840Z,30.90
2018-08-03T20:02:54.072Z,31.30
2018-08-03T20:05:23.305Z,32.00
2018-08-03T20:07:52.552Z,32.70
2018-08-03T20:10:22.120Z,32.70
2018-08-03T20:12:51.633Z,32.90
2018-08-03T20:15:20.857Z,33.70
2018-08-03T20:17:50.309Z,33.70
2018-08-03T20:20:20.058Z,33.70
2018-08-03T20:22:49.737Z,34.60
2018-08-03T20:25:19.577Z,34.40
2018-08-03T20:27:49.873Z,34.70
2018-08-03T20:30:19.176Z,35.90
2018-08-03T20:32:48.657Z,35.10
2018-08-03T20:37:47.405Z,34.90
2018-08-03T20:40:17.334Z,36.00
2018-08-03T20:42:46.534Z,35.60
2018-08-03T20:45:15.925Z,36.20
2018-08-03T20:47:46.672Z,35.40
2018-08-03T20:50:16.029Z,35.50
2018-08-03T20:52:45.645Z,36.70
2018-08-03T20:55:15.046Z,35.90
2018-08-03T20:57:44.261Z,36.00
2018-08-03T21:00:13.500Z,36.40
2018-08-03T21:02:42.933Z,37.30
2018-08-03T21:05:12.282Z,37.60
2018-08-03T21:07:41.766Z,37.40
2018-08-03T21:10:11.721Z,37.80
2018-08-03T21:12:41.036Z,36.70
2018-08-03T21:15:10.917Z,37.60
2018-08-03T21:17:41.437Z,37.40
2018-08-03T21:20:11.013Z,37.50
2018-08-03T21:22:41.548Z,36.90
2018-08-03T21:25:11.389Z,38.70
2018-08-03T21:27:41.092Z,38.40
2018-08-03T21:30:11.355Z,38.20
2018-08-03T21:32:40.600Z,38.10
2018-08-03T21:35:10.260Z,38.40
2018-08-03T21:37:39.485Z,38.60
2018-08-03T21:40:08.848Z,38.90
2018-08-03T21:42:38.063Z,38.60
2018-08-03T21:45:07.688Z,39.10
2018-08-03T21:47:37.294Z,39.70
2018-08-03T21:50:06.596Z,38.90
2018-08-03T21:52:35.812Z,38.70
2018-08-03T21:55:05.240Z,38.50
2018-08-03T21:57:35.108Z,39.90
2018-08-03T22:00:08.788Z,39.30
2018-08-03T22:02:39.302Z,40.50
2018-08-03T22:05:09.710Z,39.90
2018-08-03T22:07:39.405Z,39.30
2018-08-03T22:10:08.638Z,40.30
2018-08-03T22:12:41.004Z,40.80
2018-08-03T22:15:10.256Z,39.80
2018-08-03T22:20:08.409Z,41.50
2018-08-03T22:22:37.739Z,40.60
2018-08-03T22:25:07.412Z,40.10
2018-08-03T22:27:36.792Z,39.80
2018-08-03T22:30:06.108Z,41.00
2018-08-03T22:32:35.996Z,41.30
2018-08-03T22:35:05.948Z,41.00
2018-08-03T22:37:35.196Z,40.40
2018-08-03T22:40:04.949Z,40.40
2018-08-03T22:42:34.648Z,41.10
2018-08-03T22:45:04.129Z,41.60
2018-08-03T22:47:33.458Z,40.50
2018-08-03T22:50:04.215Z,40.60
2018-08-03T22:52:33.703Z,41.00
2018-08-03T22:55:03.324Z,42.70
2018-08-03T22:57:32.808Z,41.40
2018-08-03T23:00:02.316Z,42.50
2018-08-03T23:02:31.896Z,41.40
2018-08-03T23:05:01.320Z,42.10
2018-08-03T23:07:30.895Z,42.10
2018-08-03T23:10:00.504Z,42.10
2018-08-03T23:12:30.048Z,41.80
2018-08-03T23:14:59.465Z,42.00
2018-08-03T23:17:29.257Z,42.20
2018-08-03T23:19:58.645Z,42.10
2018-08-03T23:22:27.881Z,42.40
2018-08-03T23:24:58.460Z,42.50
2018-08-03T23:27:28.000Z,42.90
2018-08-03T23:29:57.720Z,42.50
2018-08-03T23:32:26.975Z,42.40
2018-08-03T23:34:56.484Z,42.70
2018-08-03T23:37:25.764Z,42.70
2018-08-03T23:39:54.983Z,42.70
2018-08-03T23:42:24.308Z,42.90
2018-08-03T23:44:53.940Z,42.60
2018-08-03T23:47:23.476Z,43.10
2018-08-03T23:49:52.721Z,43.10
2018-08-03T23:52:22.645Z,43.00
2018-08-03T23:54:51.887Z,43.10
2018-08-03T23:57:21.743Z,43.80
2018-08-03T23:59:50.975Z,44.10
